SVPL1: Red River at Shreveport Site 2

                                SHEF ID:       SVPL1     Red River at Shreveport Site 2
STATION TYPE:

PRECIP STAGE RIV-FLOW VOLTAGE
in ft cfs volt
Ccp-Rev Ccp-Rev Ccp-Rev Ccp-Rev
(America/Chicago)
07/19 00:00 0.00 14.18 6000 12.84
07/19 01:00 0.00 14.18 6000 12.83
07/19 02:00 0.00 14.19 6125 12.82
07/19 03:00 0.00 14.20 6250 12.81
07/19 04:00 0.00 14.21 6375 12.80
07/19 05:00 0.00 14.11 5125 12.79
07/19 06:00 0.00 14.18 6000 12.80
07/19 07:00 0.00 14.12 5250 12.97
07/19 08:00 0.00 14.12 5250 13.35
07/19 09:00 0.00 14.11 5125 13.07
07/19 10:00 0.00 14.13 5375 13.06
07/19 11:00 0.00 14.11 5125 13.08
07/19 12:00 0.00 14.18 6000 13.06
07/19 13:00 0.00 14.15 5625 13.09
07/19 14:00 0.00 14.22 6500 13.07
07/19 15:00 0.00 14.11 5125 13.09
07/19 16:00 0.00 14.21 6375 13.09
07/19 17:00 0.00 14.20 6250 13.07
07/19 18:00 0.00 14.18 6000 13.05
07/19 19:00 0.00 14.16 5750 12.93
07/19 20:00 0.00 14.16 5750 12.90
07/19 21:00 0.00 14.15 5625 12.88
07/19 22:00 0.00 14.15 5625 12.86
07/19 23:00 0.00 14.15 5625 12.88
Data processed at Mon 20Jul2026 04:24 GMT

NOTICE: If you are parsing this page

Please convert to using our Data API. Starting early 2026 we will be migrating to: https://water.usace.army.mil with modern pages rendered in JavaScript. When this migration completes you will no longer be able to scrape this page! CWMSDataAPI (CDA)

Timeseries IDs (TSIDs)

TSIDs used from left to right in the data table
SHRE.Precip-Inc.Total.1Hour.1Hour.Ccp-Rev
SHRE.Stage.Inst.1Hour.0.Ccp-Rev
SHRE.Flow.Inst.1Hour.0.Ccp-Rev
SHRE.Volt-Battery.Inst.1Hour.0.Ccp-Rev

                            

All information presented herein is the property of the government of the United States of America and may be revised or deleted at any time without prior notice. Dissemination of this information without the expressed written consent of the Public Affairs Office, Tulsa District U.S. Army Corps of Engineers is strictly prohibited. These data are gathered electronically and, as presented, have NOT undergone any form of quality control. These data are NOT guaranteed to be valid or correct.